createdAt,value
2023-05-05T00:00:23.117Z,0.70
2023-05-05T00:02:51.841Z,1.70
2023-05-05T00:05:20.352Z,1.83
2023-05-05T00:07:48.553Z,2.40
2023-05-05T00:10:17.317Z,1.27
2023-05-05T00:12:45.674Z,1.08
2023-05-05T00:15:13.879Z,1.17
2023-05-05T00:17:42.268Z,0.80
2023-05-05T00:20:10.782Z,0.85
2023-05-05T00:22:38.955Z,1.40
2023-05-05T00:25:07.733Z,0.80
2023-05-05T00:27:36.988Z,0.95
2023-05-05T00:30:07.192Z,0.88
2023-05-05T00:32:36.554Z,1.70
2023-05-05T00:35:05.494Z,1.23
2023-05-05T00:37:33.743Z,2.33
2023-05-05T00:40:02.201Z,2.45
2023-05-05T00:42:42.443Z,1.00
2023-05-05T00:45:12.337Z,1.77
2023-05-05T00:47:43.406Z,6.62
2023-05-05T00:50:21.640Z,0.90
2023-05-05T00:52:51.184Z,1.30
2023-05-05T00:55:20.595Z,2.95
2023-05-05T00:57:49.750Z,1.05
2023-05-05T01:00:18.126Z,1.50
2023-05-05T01:02:47.001Z,0.90
2023-05-05T01:05:17.161Z,0.70
2023-05-05T01:08:20.953Z,1.98
2023-05-05T01:10:55.095Z,5.25
2023-05-05T01:13:42.927Z,1.00
2023-05-05T01:16:32.199Z,0.82
2023-05-05T01:19:38.359Z,0.43
2023-05-05T01:22:11.917Z,1.00
2023-05-05T01:24:43.459Z,0.90
2023-05-05T01:27:48.070Z,1.15
2023-05-05T01:30:38.340Z,0.70
2023-05-05T01:33:10.613Z,1.02
2023-05-05T01:35:45.901Z,1.90
2023-05-05T01:38:21.696Z,3.12
2023-05-05T01:40:57.358Z,1.58
2023-05-05T01:43:29.586Z,0.85
2023-05-05T01:45:59.426Z,1.10
2023-05-05T01:48:29.920Z,0.90
2023-05-05T01:51:00.742Z,0.47
2023-05-05T01:53:30.245Z,4.20
2023-05-05T01:55:59.023Z,0.73
2023-05-05T01:58:30.268Z,0.75
2023-05-05T02:01:00.352Z,1.12
2023-05-05T02:03:32.112Z,0.95
2023-05-05T02:06:01.728Z,0.60
2023-05-05T02:08:31.619Z,5.78
2023-05-05T02:11:01.243Z,1.02
2023-05-05T02:13:34.814Z,0.88
2023-05-05T02:16:06.224Z,0.90
2023-05-05T02:18:36.427Z,0.60
2023-05-05T02:21:05.114Z,1.17
2023-05-05T02:23:33.982Z,1.08
2023-05-05T02:26:07.829Z,1.35
2023-05-05T02:28:48.644Z,3.92
2023-05-05T02:31:22.781Z,0.82
2023-05-05T02:33:53.561Z,1.48
2023-05-05T02:36:26.053Z,0.82
2023-05-05T02:39:02.203Z,1.73
2023-05-05T02:41:34.799Z,0.82
2023-05-05T02:44:06.714Z,1.17
2023-05-05T02:46:37.239Z,0.95
2023-05-05T02:49:05.346Z,0.95
2023-05-05T02:51:34.086Z,0.95
2023-05-05T02:54:03.566Z,0.95
2023-05-05T02:56:31.694Z,0.68
2023-05-05T02:59:16.476Z,2.35
2023-05-05T03:04:35.361Z,1.02
2023-05-05T03:07:10.993Z,0.62
2023-05-05T03:10:05.554Z,0.68
2023-05-05T03:13:07.879Z,1.00
2023-05-05T03:15:43.296Z,0.52
2023-05-05T03:18:15.669Z,3.12
2023-05-05T03:20:44.834Z,1.35
2023-05-05T03:23:14.648Z,0.80
2023-05-05T03:25:47.886Z,4.90
2023-05-05T03:28:18.068Z,0.60
2023-05-05T03:30:46.314Z,0.65
2023-05-05T03:33:16.597Z,1.05
2023-05-05T03:35:45.135Z,0.85
2023-05-05T03:38:13.713Z,0.52
2023-05-05T03:40:44.636Z,0.70
2023-05-05T03:43:15.524Z,1.00
2023-05-05T03:45:44.356Z,1.75
2023-05-05T03:48:12.694Z,1.02
2023-05-05T03:50:41.258Z,0.62
2023-05-05T03:53:10.514Z,0.90
2023-05-05T03:55:39.439Z,1.27
2023-05-05T03:58:07.953Z,0.65
2023-05-05T04:00:36.644Z,1.02
2023-05-05T04:03:05.244Z,1.35
2023-05-05T04:05:33.594Z,1.10
2023-05-05T04:08:03.357Z,0.80
2023-05-05T04:10:32.274Z,7.10
2023-05-05T04:13:01.739Z,2.45
2023-05-05T04:15:31.004Z,0.82
2023-05-05T04:17:59.677Z,0.98
2023-05-05T04:20:28.497Z,0.82
2023-05-05T04:22:57.863Z,0.98
2023-05-05T04:25:26.323Z,0.40
2023-05-05T04:27:54.742Z,1.92
2023-05-05T04:30:23.773Z,0.80
2023-05-05T04:32:52.346Z,0.50
2023-05-05T04:35:20.983Z,0.75
2023-05-05T04:37:49.876Z,0.88
2023-05-05T04:40:18.638Z,1.00
2023-05-05T04:42:47.074Z,1.73
2023-05-05T04:45:15.569Z,0.50
2023-05-05T04:47:44.164Z,1.27
2023-05-05T04:50:12.566Z,1.25
2023-05-05T04:52:41.482Z,0.65
2023-05-05T04:55:10.744Z,1.55
2023-05-05T04:57:39.219Z,1.12
2023-05-05T05:00:08.974Z,1.58
2023-05-05T05:02:37.868Z,3.15
2023-05-05T05:05:06.602Z,3.10
2023-05-05T05:07:34.789Z,0.55
2023-05-05T05:10:03.841Z,1.23
2023-05-05T05:12:33.454Z,0.73
2023-05-05T05:15:01.871Z,1.67
2023-05-05T05:17:31.404Z,0.50
2023-05-05T05:20:04.816Z,1.33
2023-05-05T05:22:34.883Z,1.15
2023-05-05T05:25:03.676Z,1.25
2023-05-05T05:27:32.150Z,0.88
2023-05-05T05:30:00.665Z,1.45
2023-05-05T05:32:29.638Z,1.40
2023-05-05T05:34:57.908Z,2.05
2023-05-05T05:37:31.020Z,1.02
2023-05-05T05:39:59.888Z,1.40
2023-05-05T05:42:28.477Z,0.80
2023-05-05T05:44:58.723Z,1.73
2023-05-05T05:47:27.236Z,4.53
2023-05-05T05:49:56.598Z,1.73
2023-05-05T05:52:25.071Z,1.80
2023-05-05T05:54:53.391Z,0.80
2023-05-05T05:57:23.772Z,3.03
2023-05-05T05:59:52.342Z,1.20
2023-05-05T06:02:21.030Z,0.60
2023-05-05T06:04:49.686Z,8.95
2023-05-05T06:07:18.199Z,1.20
2023-05-05T06:09:46.757Z,1.27
2023-05-05T06:12:16.357Z,1.20
2023-05-05T06:14:44.886Z,0.80
2023-05-05T06:17:13.168Z,2.53
2023-05-05T06:19:43.420Z,2.37
2023-05-05T06:22:11.896Z,1.15
2023-05-05T06:24:40.381Z,1.48
2023-05-05T06:27:09.354Z,2.80
2023-05-05T06:29:37.572Z,2.35
2023-05-05T06:32:08.518Z,1.35
2023-05-05T06:34:36.968Z,2.08
2023-05-05T06:37:05.472Z,1.17
2023-05-05T06:39:33.798Z,1.12
2023-05-05T06:42:04.184Z,2.37
2023-05-05T06:44:34.660Z,2.15
2023-05-05T06:47:03.818Z,1.30
2023-05-05T06:49:32.177Z,1.12
2023-05-05T06:52:00.565Z,0.90
2023-05-05T06:54:29.344Z,0.90
2023-05-05T06:56:59.689Z,1.58
2023-05-05T06:59:28.208Z,1.08
2023-05-05T07:01:56.961Z,1.12
2023-05-05T07:04:24.982Z,1.37
2023-05-05T07:06:55.389Z,0.90
2023-05-05T07:09:24.287Z,0.80
2023-05-05T07:11:52.926Z,1.12
2023-05-05T07:14:24.347Z,0.52
2023-05-05T07:16:53.212Z,1.52
2023-05-05T07:19:21.366Z,1.45
2023-05-05T07:21:49.879Z,6.62
2023-05-05T07:24:18.804Z,2.85
2023-05-05T07:26:46.907Z,1.50
2023-05-05T07:29:15.250Z,1.65
2023-05-05T07:31:43.856Z,1.12
2023-05-05T07:34:12.338Z,1.52
2023-05-05T07:36:41.083Z,1.67
2023-05-05T07:39:09.810Z,1.65
2023-05-05T07:41:38.091Z,0.95
2023-05-05T07:44:06.577Z,2.72
2023-05-05T07:46:35.203Z,10.98
2023-05-05T07:49:03.794Z,3.10
2023-05-05T07:51:34.396Z,1.25
2023-05-05T07:54:03.310Z,1.40
2023-05-05T07:56:31.863Z,1.52
2023-05-05T07:59:00.662Z,1.40
2023-05-05T08:01:29.168Z,2.60
2023-05-05T08:03:57.834Z,14.75
2023-05-05T08:06:28.023Z,2.45
2023-05-05T08:08:56.200Z,1.10
2023-05-05T08:11:27.780Z,1.58
2023-05-05T08:13:59.025Z,1.85
2023-05-05T08:16:27.771Z,1.15
2023-05-05T08:18:56.293Z,2.33
2023-05-05T08:21:24.595Z,1.85
2023-05-05T08:23:54.165Z,1.45
2023-05-05T08:26:22.895Z,4.85
2023-05-05T08:28:55.387Z,1.80
2023-05-05T08:31:23.820Z,2.15
2023-05-05T08:33:52.119Z,1.95
2023-05-05T08:36:20.489Z,1.25
2023-05-05T08:38:48.951Z,1.62
2023-05-05T08:41:19.938Z,2.03
2023-05-05T08:43:49.448Z,1.87
2023-05-05T08:46:18.096Z,2.22
2023-05-05T08:48:48.635Z,1.65
2023-05-05T08:51:19.740Z,1.70
2023-05-05T08:53:54.074Z,3.53
2023-05-05T08:58:51.725Z,1.65
2023-05-05T09:01:21.087Z,1.90
2023-05-05T09:03:50.366Z,1.33
2023-05-05T09:06:21.331Z,1.40
2023-05-05T09:08:50.708Z,2.25
2023-05-05T09:11:19.032Z,1.80
2023-05-05T09:13:47.550Z,1.50
2023-05-05T09:16:16.399Z,2.22
2023-05-05T09:18:45.732Z,1.37
2023-05-05T09:21:22.309Z,2.05
2023-05-05T09:24:09.611Z,2.42
2023-05-05T09:26:42.560Z,1.65
2023-05-05T09:29:19.592Z,1.35
2023-05-05T09:32:11.204Z,5.53
2023-05-05T09:34:40.599Z,1.90
2023-05-05T09:37:08.909Z,4.82
2023-05-05T09:39:37.018Z,4.00
2023-05-05T09:42:06.523Z,2.33
2023-05-05T09:44:36.428Z,4.50
2023-05-05T09:47:07.329Z,2.25
2023-05-05T09:49:40.797Z,3.03
2023-05-05T09:52:16.622Z,2.20
2023-05-05T09:54:45.765Z,2.03
2023-05-05T09:57:47.469Z,1.58
2023-05-05T10:00:16.611Z,1.87
2023-05-05T10:02:45.600Z,2.15
2023-05-05T10:05:15.401Z,1.62
2023-05-05T10:07:45.267Z,2.12
2023-05-05T10:10:18.211Z,2.58
2023-05-05T10:12:48.132Z,2.55
2023-05-05T10:15:17.175Z,2.58
2023-05-05T10:18:06.165Z,2.35
2023-05-05T10:20:38.204Z,2.30
2023-05-05T10:23:10.637Z,2.30
2023-05-05T10:25:54.869Z,3.08
2023-05-05T10:28:34.448Z,1.42
2023-05-05T10:31:19.953Z,1.60
2023-05-05T10:34:09.227Z,3.05
2023-05-05T10:36:39.216Z,2.22
2023-05-05T10:39:09.499Z,2.00
2023-05-05T10:41:39.071Z,2.20
2023-05-05T10:44:07.938Z,1.80
2023-05-05T10:46:36.497Z,3.40
2023-05-05T10:49:35.512Z,1.37
2023-05-05T10:52:06.795Z,1.42
2023-05-05T10:54:43.531Z,1.67
2023-05-05T10:57:12.346Z,2.08
2023-05-05T10:59:41.935Z,2.37
2023-05-05T11:02:21.341Z,1.55
2023-05-05T11:05:09.523Z,2.30
2023-05-05T11:07:38.318Z,1.62
2023-05-05T11:10:14.529Z,3.28
2023-05-05T11:13:03.229Z,1.67
2023-05-05T11:15:31.653Z,2.97
2023-05-05T11:18:05.815Z,1.20
2023-05-05T11:20:36.516Z,3.30
2023-05-05T11:23:05.164Z,1.08
2023-05-05T11:25:36.900Z,1.85
2023-05-05T11:28:14.482Z,1.62
2023-05-05T11:31:00.766Z,1.00
2023-05-05T11:33:29.976Z,1.50
2023-05-05T11:35:57.866Z,1.75
2023-05-05T11:38:40.107Z,1.30
2023-05-05T11:41:26.870Z,3.00
2023-05-05T11:44:14.948Z,3.15
2023-05-05T11:46:52.413Z,2.10
2023-05-05T11:49:33.990Z,1.02
2023-05-05T11:52:06.211Z,0.95
2023-05-05T11:54:40.658Z,2.15
2023-05-05T11:57:09.136Z,1.40
2023-05-05T11:59:59.365Z,2.95
2023-05-05T12:02:29.573Z,1.73
2023-05-05T12:05:00.195Z,1.35
2023-05-05T12:07:31.196Z,0.98
2023-05-05T12:10:01.183Z,1.05
2023-05-05T12:12:40.282Z,2.17
2023-05-05T12:15:09.717Z,1.17
2023-05-05T12:17:39.760Z,1.25
2023-05-05T12:20:11.006Z,0.82
2023-05-05T12:22:40.663Z,1.55
2023-05-05T12:25:10.070Z,1.35
2023-05-05T12:27:39.034Z,1.45
2023-05-05T12:30:17.885Z,0.75
2023-05-05T12:32:46.722Z,0.65
2023-05-05T12:35:16.043Z,0.98
2023-05-05T12:37:44.581Z,1.75
2023-05-05T12:40:45.211Z,1.10
2023-05-05T12:43:29.570Z,2.12
2023-05-05T12:46:06.506Z,2.05
2023-05-05T12:48:38.190Z,0.75
2023-05-05T12:51:17.520Z,0.80
2023-05-05T12:53:49.661Z,1.45
2023-05-05T12:56:36.479Z,1.10
2023-05-05T12:59:09.807Z,1.23
2023-05-05T13:01:48.664Z,0.60
2023-05-05T13:04:16.915Z,1.15
2023-05-05T13:06:50.240Z,0.98
2023-05-05T13:09:35.936Z,1.35
2023-05-05T13:12:05.272Z,0.80
2023-05-05T13:14:34.156Z,1.05
2023-05-05T13:17:02.342Z,4.05
2023-05-05T13:19:31.258Z,0.93
2023-05-05T13:22:00.018Z,1.40
2023-05-05T13:24:38.563Z,1.10
2023-05-05T13:27:12.072Z,0.95
2023-05-05T13:29:41.584Z,1.35
2023-05-05T13:32:09.750Z,0.93
2023-05-05T13:34:39.599Z,0.88
2023-05-05T13:37:08.709Z,0.82
2023-05-05T13:39:37.045Z,1.25
2023-05-05T13:42:05.792Z,2.08
2023-05-05T13:44:35.370Z,0.93
2023-05-05T13:47:03.739Z,1.12
2023-05-05T13:49:33.043Z,1.45
2023-05-05T13:52:02.810Z,1.33
2023-05-05T13:54:31.001Z,0.88
2023-05-05T13:57:00.640Z,1.20
2023-05-05T13:59:28.917Z,2.28
2023-05-05T14:01:57.129Z,1.05
2023-05-05T14:04:26.023Z,1.00
2023-05-05T14:06:54.650Z,4.53
2023-05-05T14:09:22.869Z,2.47
2023-05-05T14:11:51.581Z,1.73
2023-05-05T14:14:21.171Z,1.20
2023-05-05T14:16:50.387Z,1.48
2023-05-05T14:19:19.156Z,1.83
2023-05-05T14:21:47.448Z,1.08
2023-05-05T14:24:15.678Z,1.58
2023-05-05T14:26:44.262Z,0.60
2023-05-05T14:29:13.133Z,0.80
2023-05-05T14:31:41.285Z,0.93
2023-05-05T14:34:10.152Z,0.80
2023-05-05T14:36:38.386Z,2.85
2023-05-05T14:39:06.885Z,3.05
2023-05-05T14:41:35.703Z,1.10
2023-05-05T14:44:03.879Z,1.42
2023-05-05T14:46:32.296Z,0.73
2023-05-05T14:49:00.888Z,0.82
2023-05-05T14:51:29.090Z,1.08
2023-05-05T14:53:58.087Z,2.30
2023-05-05T14:56:26.673Z,1.62
2023-05-05T14:58:55.330Z,2.12
2023-05-05T15:01:25.789Z,2.12
2023-05-05T15:03:54.876Z,1.23
2023-05-05T15:06:23.254Z,0.98
2023-05-05T15:08:51.701Z,1.90
2023-05-05T15:11:22.086Z,1.40
2023-05-05T15:13:50.611Z,1.80
2023-05-05T15:16:18.774Z,2.45
2023-05-05T15:18:47.449Z,0.85
2023-05-05T15:21:15.841Z,3.75
2023-05-05T15:23:43.874Z,0.70
2023-05-05T15:26:12.799Z,1.70
2023-05-05T15:28:41.282Z,1.20
2023-05-05T15:31:10.619Z,1.40
2023-05-05T15:33:39.829Z,1.73
2023-05-05T15:36:08.593Z,6.87
2023-05-05T15:38:42.497Z,1.42
2023-05-05T15:43:39.210Z,1.67
2023-05-05T15:46:07.507Z,1.02
2023-05-05T15:48:36.212Z,1.10
2023-05-05T15:51:04.909Z,2.62
2023-05-05T15:53:33.164Z,3.42
2023-05-05T15:56:02.655Z,1.08
2023-05-05T15:58:30.915Z,1.95
2023-05-05T16:00:59.326Z,0.98
2023-05-05T16:03:27.986Z,1.50
2023-05-05T16:05:56.193Z,1.30
2023-05-05T16:08:24.592Z,0.90
2023-05-05T16:10:53.055Z,1.27
2023-05-05T16:13:21.460Z,1.70
2023-05-05T16:15:49.893Z,1.05
2023-05-05T16:18:19.202Z,4.37
2023-05-05T16:20:47.411Z,1.00
2023-05-05T16:23:15.662Z,0.85
2023-05-05T16:25:44.798Z,0.80
2023-05-05T16:28:13.269Z,1.08
2023-05-05T16:30:43.530Z,1.08
2023-05-05T16:33:12.284Z,1.40
2023-05-05T16:35:40.518Z,2.65
2023-05-05T16:38:09.300Z,1.40
2023-05-05T16:40:37.946Z,1.48
2023-05-05T16:43:06.435Z,1.27
2023-05-05T16:45:34.578Z,5.85
2023-05-05T16:48:03.367Z,4.90
2023-05-05T16:50:31.712Z,1.00
2023-05-05T16:52:59.816Z,0.90
2023-05-05T16:55:28.411Z,1.05
2023-05-05T16:57:56.524Z,2.90
2023-05-05T17:00:24.763Z,6.80
2023-05-05T17:02:53.727Z,1.98
2023-05-05T17:05:21.864Z,1.25
2023-05-05T17:08:03.285Z,3.05
2023-05-05T17:10:32.144Z,1.98
2023-05-05T17:13:00.300Z,1.77
2023-05-05T17:15:28.965Z,2.72
2023-05-05T17:17:57.287Z,0.95
2023-05-05T17:20:25.624Z,1.00
2023-05-05T17:22:54.658Z,5.82
2023-05-05T17:25:23.144Z,1.20
2023-05-05T17:27:51.285Z,1.17
2023-05-05T17:30:19.584Z,1.48
2023-05-05T17:32:48.757Z,3.90
2023-05-05T17:35:16.891Z,2.45
2023-05-05T17:37:45.461Z,3.42
2023-05-05T17:40:13.991Z,3.65
2023-05-05T17:42:42.328Z,15.55
2023-05-05T17:45:11.814Z,14.15
2023-05-05T17:47:40.410Z,25.80
2023-05-05T17:50:10.851Z,19.75
2023-05-05T17:52:40.752Z,24.23
2023-05-05T17:55:09.772Z,19.40
2023-05-05T17:57:38.481Z,18.52
2023-05-05T18:00:08.296Z,12.70
2023-05-05T18:02:41.349Z,15.25
2023-05-05T18:05:11.098Z,8.95
2023-05-05T18:07:39.746Z,7.43
2023-05-05T18:10:10.546Z,5.22
2023-05-05T18:12:39.222Z,6.85
2023-05-05T18:15:08.828Z,3.85
2023-05-05T18:17:37.493Z,9.57
2023-05-05T18:20:07.280Z,3.30
2023-05-05T18:22:35.891Z,3.70
2023-05-05T18:25:05.940Z,8.88
2023-05-05T18:27:36.394Z,2.40
2023-05-05T18:30:05.936Z,3.37
2023-05-05T18:32:34.104Z,4.50
2023-05-05T18:35:02.841Z,1.83
2023-05-05T18:37:31.074Z,1.52
2023-05-05T18:39:59.053Z,2.30
2023-05-05T18:42:27.643Z,1.48
2023-05-05T18:44:58.935Z,1.62
2023-05-05T18:47:28.718Z,1.73
2023-05-05T18:49:56.985Z,1.67
2023-05-05T18:52:25.181Z,9.75
2023-05-05T18:54:53.640Z,1.52
2023-05-05T18:57:22.208Z,2.30
2023-05-05T18:59:50.337Z,3.45
2023-05-05T19:02:18.846Z,2.28
2023-05-05T19:04:47.110Z,2.50
2023-05-05T19:07:24.060Z,2.28
2023-05-05T19:09:56.934Z,1.25
2023-05-05T19:12:24.974Z,1.17
2023-05-05T19:14:53.106Z,1.83
2023-05-05T19:17:22.251Z,5.93
2023-05-05T19:19:50.636Z,1.35
2023-05-05T19:22:20.609Z,1.45
2023-05-05T19:24:49.192Z,1.00
2023-05-05T19:27:17.350Z,1.77
2023-05-05T19:29:52.807Z,2.28
2023-05-05T19:32:21.757Z,2.80
2023-05-05T19:34:50.220Z,1.92
2023-05-05T19:37:18.410Z,3.22
2023-05-05T19:39:49.010Z,2.50
2023-05-05T19:42:17.734Z,1.83
2023-05-05T19:44:45.992Z,2.55
2023-05-05T19:47:14.320Z,1.50
2023-05-05T19:49:42.408Z,2.03
2023-05-05T19:52:10.629Z,1.92
2023-05-05T19:54:39.415Z,1.12
2023-05-05T19:57:08.512Z,3.20
2023-05-05T19:59:36.694Z,2.15
2023-05-05T20:02:05.342Z,1.77
2023-05-05T20:04:33.730Z,1.48
2023-05-05T20:07:03.681Z,1.25
2023-05-05T20:09:32.018Z,1.62
2023-05-05T20:12:00.342Z,1.35
2023-05-05T20:14:28.480Z,3.35
2023-05-05T20:16:56.733Z,2.83
2023-05-05T20:19:25.212Z,1.27
2023-05-05T20:21:53.492Z,1.85
2023-05-05T20:24:21.705Z,1.33
2023-05-05T20:26:50.651Z,1.45
2023-05-05T20:29:20.252Z,6.12
2023-05-05T20:31:51.288Z,4.35
2023-05-05T20:34:20.153Z,2.12
2023-05-05T20:36:48.520Z,1.55
2023-05-05T20:39:16.914Z,2.05
2023-05-05T20:41:46.419Z,1.10
2023-05-05T20:44:14.738Z,1.33
2023-05-05T20:46:42.859Z,1.98
2023-05-05T20:49:11.263Z,1.70
2023-05-05T20:51:40.050Z,1.87
2023-05-05T20:54:10.020Z,2.45
2023-05-05T20:56:38.500Z,2.30
2023-05-05T20:59:06.868Z,2.62
2023-05-05T21:01:35.477Z,2.10
2023-05-05T21:04:04.183Z,6.05
2023-05-05T21:06:33.028Z,1.42
2023-05-05T21:09:01.159Z,2.42
2023-05-05T21:11:29.942Z,1.58
2023-05-05T21:13:58.349Z,1.40
2023-05-05T21:16:26.614Z,1.50
2023-05-05T21:18:55.048Z,1.05
2023-05-05T21:21:24.656Z,1.80
2023-05-05T21:23:55.218Z,1.33
2023-05-05T21:26:25.075Z,1.75
2023-05-05T21:28:53.615Z,2.92
2023-05-05T21:31:22.853Z,3.08
2023-05-05T21:33:51.817Z,1.33
2023-05-05T21:36:21.004Z,1.80
2023-05-05T21:38:49.809Z,5.78
2023-05-05T21:41:18.433Z,2.05
2023-05-05T21:43:46.931Z,2.17
2023-05-05T21:46:17.214Z,2.22
2023-05-05T21:48:47.344Z,1.90
2023-05-05T21:51:15.982Z,1.73
2023-05-05T21:53:44.527Z,5.60
2023-05-05T21:56:13.081Z,1.60
2023-05-05T21:58:41.602Z,1.37
2023-05-05T22:01:10.176Z,10.40
2023-05-05T22:03:38.764Z,2.05
2023-05-05T22:06:06.919Z,2.20
2023-05-05T22:08:34.985Z,1.05
2023-05-05T22:11:03.589Z,3.78
2023-05-05T22:13:31.891Z,4.10
2023-05-05T22:15:59.986Z,1.62
2023-05-05T22:18:28.434Z,1.58
2023-05-05T22:20:57.228Z,5.75
2023-05-05T22:23:25.351Z,1.87
2023-05-05T22:25:54.162Z,1.83
2023-05-05T22:28:22.907Z,2.00
2023-05-05T22:30:51.262Z,1.60
2023-05-05T22:33:20.061Z,1.65
2023-05-05T22:35:48.419Z,1.55
2023-05-05T22:38:16.795Z,2.20
2023-05-05T22:40:46.098Z,1.20
2023-05-05T22:43:14.534Z,3.47
2023-05-05T22:45:44.052Z,0.85
2023-05-05T22:48:12.572Z,2.80
2023-05-05T22:50:41.434Z,1.45
2023-05-05T22:53:09.632Z,1.85
2023-05-05T22:55:38.765Z,2.05
2023-05-05T22:58:07.166Z,2.35
2023-05-05T23:00:35.319Z,1.67
2023-05-05T23:03:04.585Z,2.65
2023-05-05T23:05:34.484Z,1.65
2023-05-05T23:08:02.651Z,1.02
2023-05-05T23:10:31.332Z,7.40
2023-05-05T23:12:59.428Z,0.75
2023-05-05T23:15:27.903Z,1.90
2023-05-05T23:17:57.027Z,1.55
2023-05-05T23:20:25.564Z,1.42
2023-05-05T23:22:53.685Z,1.70
2023-05-05T23:25:22.141Z,1.27
2023-05-05T23:27:50.660Z,2.65
2023-05-05T23:30:18.966Z,1.60
2023-05-05T23:32:47.849Z,3.35
2023-05-05T23:35:16.388Z,2.65
2023-05-05T23:37:44.456Z,2.78
2023-05-05T23:40:13.000Z,2.47
2023-05-05T23:42:43.012Z,2.05
2023-05-05T23:45:11.609Z,2.12
2023-05-05T23:47:40.518Z,2.65
2023-05-05T23:50:09.305Z,1.55
2023-05-05T23:52:37.399Z,2.12
2023-05-05T23:55:07.213Z,4.80
2023-05-05T23:57:35.987Z,2.17
